Time;durP1;ratioP1;P1;durP2;ratioP2;P2;SDS_P1;SDS_P2;PMS_P1;PMS_P2;Temp;Humidity;BMP_temperature;BMP_pressure;BME280_temperature;BME280_humidity;BME280_pressure;Samples;Min_cycle;Max_cycle;Signal;HPM_P1;HPM_P2
2021/07/30 00:01:21;;;;;;;0.40;0.40;;;24.80;56.00;;;;;;6220006;28;20034;-72
2021/07/30 00:04:22;;;;;;;0.40;0.40;;;24.80;56.10;;;;;;6219762;28;20030;-72
2021/07/30 00:07:22;;;;;;;0.60;0.40;;;24.80;56.10;;;;;;6220118;28;20061;-71
2021/07/30 00:10:23;;;;;;;0.50;0.40;;;24.80;56.10;;;;;;6219715;28;20084;-72
2021/07/30 00:13:23;;;;;;;0.50;0.50;;;24.80;56.10;;;;;;6214265;28;20023;-72
2021/07/30 00:16:24;;;;;;;0.68;0.40;;;24.80;56.10;;;;;;6219879;28;20433;-72
2021/07/30 00:19:25;;;;;;;0.80;0.50;;;24.80;56.10;;;;;;6219939;28;20018;-72
2021/07/30 00:22:25;;;;;;;0.40;0.40;;;24.80;56.10;;;;;;6219564;28;20045;-72
2021/07/30 00:25:26;;;;;;;0.32;0.30;;;24.80;56.10;;;;;;6219759;28;20025;-72
2021/07/30 00:28:26;;;;;;;0.80;0.40;;;24.80;56.20;;;;;;6219228;28;20384;-72
2021/07/30 00:31:27;;;;;;;0.40;0.40;;;24.80;56.20;;;;;;6219450;28;20109;-72
2021/07/30 00:34:27;;;;;;;0.63;0.30;;;24.80;56.90;;;;;;6219224;28;20038;-72
2021/07/30 00:37:28;;;;;;;1.05;0.50;;;24.80;56.20;;;;;;6219464;28;20026;-72
2021/07/30 00:40:29;;;;;;;0.82;0.40;;;24.80;56.20;;;;;;6219165;28;20184;-72
2021/07/30 00:43:30;;;;;;;0.40;0.40;;;24.80;56.30;;;;;;6219519;28;20046;-72
2021/07/30 00:46:30;;;;;;;0.40;0.40;;;24.80;56.20;;;;;;6219727;28;20038;-72
2021/07/30 00:49:31;;;;;;;0.55;0.40;;;24.80;56.30;;;;;;6218807;28;20033;-72
2021/07/30 00:52:32;;;;;;;0.63;0.40;;;24.80;56.30;;;;;;6218585;28;20500;-72
2021/07/30 00:55:33;;;;;;;0.63;0.50;;;24.80;56.30;;;;;;6218482;28;20594;-72
2021/07/30 00:58:33;;;;;;;0.65;0.50;;;24.80;56.30;;;;;;6218755;28;20034;-72
2021/07/30 01:01:34;;;;;;;0.95;0.40;;;24.80;56.30;;;;;;6218161;28;20042;-72
2021/07/30 01:04:34;;;;;;;0.40;0.40;;;24.80;56.30;;;;;;6218981;28;20472;-72
2021/07/30 01:07:35;;;;;;;0.45;0.40;;;24.80;56.30;;;;;;6218670;28;20056;-71
2021/07/30 01:10:35;;;;;;;1.45;0.55;;;24.80;56.30;;;;;;6218758;28;20457;-72
2021/07/30 01:13:36;;;;;;;0.82;0.63;;;24.80;56.40;;;;;;6216269;28;20033;-72
2021/07/30 01:16:39;;;;;;;0.30;0.30;;;24.80;56.40;;;;;;6218569;28;20022;-72
2021/07/30 01:19:39;;;;;;;0.65;0.50;;;24.80;56.40;;;;;;6218242;28;20489;-72
2021/07/30 01:22:47;;;;;;;0.55;0.52;;;24.70;56.30;;;;;;6218252;28;20050;-72
2021/07/30 01:25:47;;;;;;;0.40;0.30;;;24.70;56.30;;;;;;6217412;28;20500;-72
2021/07/30 01:28:48;;;;;;;0.43;0.40;;;24.70;56.60;;;;;;6218429;28;20022;-72
2021/07/30 01:31:49;;;;;;;0.40;0.38;;;24.80;56.40;;;;;;6217852;28;20034;-72
2021/07/30 01:34:49;;;;;;;0.47;0.43;;;24.80;56.40;;;;;;6218149;28;20084;-72
2021/07/30 01:37:50;;;;;;;0.40;0.30;;;24.80;56.50;;;;;;6218027;28;20285;-72
2021/07/30 01:40:50;;;;;;;0.65;0.40;;;24.70;56.40;;;;;;6218328;28;20026;-72
2021/07/30 01:43:51;;;;;;;0.38;0.38;;;24.80;56.50;;;;;;6218678;28;20064;-72
2021/07/30 01:46:51;;;;;;;0.55;0.50;;;24.80;56.50;;;;;;6227437;28;20034;-72
2021/07/30 01:49:52;;;;;;;0.20;0.20;;;24.70;56.40;;;;;;6227051;28;20057;-72
2021/07/30 01:52:53;;;;;;;0.57;0.40;;;24.80;56.50;;;;;;6226701;28;20038;-72
2021/07/30 01:55:54;;;;;;;0.40;0.40;;;24.80;57.20;;;;;;6225031;28;20398;-72
2021/07/30 01:58:54;;;;;;;0.52;0.43;;;24.70;56.40;;;;;;6218446;28;20087;-72
2021/07/30 02:01:55;;;;;;;0.28;0.28;;;24.80;56.50;;;;;;6217721;28;20045;-72
2021/07/30 02:04:55;;;;;;;0.52;0.40;;;24.70;56.40;;;;;;6217788;28;20092;-72
2021/07/30 02:07:56;;;;;;;0.30;0.30;;;24.70;56.50;;;;;;6217383;28;20033;-72
2021/07/30 02:10:56;;;;;;;0.93;0.52;;;24.70;56.50;;;;;;6217764;28;20104;-72
2021/07/30 02:14:15;;;;;;;0.50;0.40;;;24.70;56.50;;;;;;6209678;28;20042;-72
2021/07/30 02:17:16;;;;;;;0.65;0.40;;;24.70;56.50;;;;;;6217504;28;20096;-72
2021/07/30 02:20:16;;;;;;;0.80;0.38;;;24.70;56.50;;;;;;6217214;28;20041;-72
2021/07/30 02:23:17;;;;;;;0.38;0.30;;;24.70;56.50;;;;;;6216856;28;20033;-72
2021/07/30 02:26:17;;;;;;;0.30;0.30;;;24.70;56.50;;;;;;6217192;28;20030;-72
2021/07/30 02:29:18;;;;;;;0.90;0.70;;;24.70;56.50;;;;;;6217336;28;20026;-72
2021/07/30 02:32:19;;;;;;;0.50;0.50;;;24.70;56.60;;;;;;6216890;28;20068;-72
2021/07/30 02:35:19;;;;;;;0.80;0.35;;;24.70;56.60;;;;;;6218018;28;20385;-72
2021/07/30 02:38:20;;;;;;;0.40;0.30;;;24.70;56.60;;;;;;6221992;28;20065;-72
2021/07/30 02:41:20;;;;;;;0.63;0.47;;;24.70;56.60;;;;;;6222234;28;20477;-72
2021/07/30 02:44:21;;;;;;;0.32;0.30;;;24.70;56.60;;;;;;6222524;28;20093;-72
2021/07/30 02:47:21;;;;;;;1.55;0.50;;;24.70;56.60;;;;;;6221830;28;20117;-73
2021/07/30 02:50:22;;;;;;;0.60;0.32;;;24.70;56.60;;;;;;6221885;28;20037;-71
2021/07/30 02:53:22;;;;;;;0.60;0.43;;;24.70;56.60;;;;;;6221493;28;20084;-72
2021/07/30 02:56:23;;;;;;;0.30;0.30;;;24.70;56.60;;;;;;6221758;28;20134;-72
2021/07/30 02:59:23;;;;;;;0.90;0.45;;;24.70;56.60;;;;;;6221698;28;20026;-72
2021/07/30 03:02:24;;;;;;;0.52;0.45;;;24.80;56.70;;;;;;6221377;28;20129;-72
2021/07/30 03:05:24;;;;;;;0.40;0.30;;;24.70;56.60;;;;;;6221518;28;20488;-72
2021/07/30 03:08:26;;;;;;;1.15;0.43;;;24.70;56.70;;;;;;6221454;28;20026;-72
2021/07/30 03:11:26;;;;;;;0.35;0.35;;;24.70;56.70;;;;;;6221689;28;20105;-72
2021/07/30 03:14:27;;;;;;;1.33;0.40;;;24.70;56.70;;;;;;6207386;28;20022;-72
2021/07/30 03:17:27;;;;;;;0.73;0.30;;;24.70;56.70;;;;;;6199026;28;20030;-72
2021/07/30 03:20:28;;;;;;;0.40;0.40;;;24.70;56.70;;;;;;6221230;28;20374;-72
2021/07/30 03:23:28;;;;;;;0.43;0.40;;;24.70;56.70;;;;;;6220498;28;20643;-72
2021/07/30 03:26:29;;;;;;;1.35;0.47;;;24.70;56.70;;;;;;6221227;28;20380;-72
2021/07/30 03:29:30;;;;;;;0.75;0.50;;;24.70;56.70;;;;;;6221113;28;20358;-72
2021/07/30 03:32:31;;;;;;;0.38;0.30;;;24.70;56.70;;;;;;6220785;28;20485;-72
2021/07/30 03:35:31;;;;;;;0.65;0.30;;;24.70;56.80;;;;;;6220633;28;20080;-72
2021/07/30 03:38:32;;;;;;;0.40;0.40;;;24.70;56.80;;;;;;6220520;28;20026;-72
2021/07/30 03:41:32;;;;;;;0.40;0.32;;;24.70;56.80;;;;;;6220291;28;20038;-72
2021/07/30 03:44:33;;;;;;;0.85;0.60;;;24.70;56.80;;;;;;6220530;28;20038;-72
2021/07/30 03:47:34;;;;;;;0.40;0.40;;;24.70;56.80;;;;;;6219869;28;20030;-72
2021/07/30 03:50:34;;;;;;;0.30;0.30;;;24.70;56.80;;;;;;6220280;28;20036;-72
2021/07/30 03:53:35;;;;;;;0.38;0.38;;;24.70;56.80;;;;;;6220464;28;20092;-72
2021/07/30 03:56:38;;;;;;;0.30;0.30;;;24.70;56.80;;;;;;6220321;28;20069;-72
2021/07/30 04:03:35;;;;;;;;;;;24.70;56.80;;;;;;6220679;28;20037;-72
2021/07/30 04:06:36;;;;;;;0.30;0.30;;;24.70;56.80;;;;;;6220269;28;19951;-72
2021/07/30 04:09:36;;;;;;;0.50;0.30;;;24.70;56.80;;;;;;6220279;28;20087;-72
2021/07/30 04:12:37;;;;;;;0.38;0.38;;;24.70;56.80;;;;;;6219956;28;20493;-72
2021/07/30 04:15:37;;;;;;;0.65;0.43;;;24.70;56.80;;;;;;6216325;28;20050;-72
2021/07/30 04:18:39;;;;;;;0.40;0.38;;;24.70;56.80;;;;;;6219490;28;20543;-72
2021/07/30 04:21:39;;;;;;;0.30;0.30;;;24.70;56.80;;;;;;6219592;28;20034;-72
2021/07/30 04:24:40;;;;;;;0.32;0.30;;;24.70;56.90;;;;;;6219476;28;20053;-72
2021/07/30 04:27:41;;;;;;;0.40;0.40;;;24.70;56.90;;;;;;6219661;28;20678;-72
2021/07/30 04:30:41;;;;;;;0.30;0.30;;;24.70;56.90;;;;;;6219748;28;20323;-72
2021/07/30 04:33:42;;;;;;;0.30;0.30;;;24.70;56.80;;;;;;6219424;28;20022;-72
2021/07/30 04:36:42;;;;;;;0.40;0.30;;;24.70;56.80;;;;;;6219489;28;20026;-72
2021/07/30 04:39:43;;;;;;;0.40;0.40;;;24.70;56.90;;;;;;6219343;28;20136;-72
2021/07/30 04:42:43;;;;;;;0.30;0.30;;;24.70;56.90;;;;;;6219631;28;20046;-72
2021/07/30 04:45:44;;;;;;;0.47;0.40;;;24.70;56.90;;;;;;6219280;28;20145;-72
2021/07/30 04:48:45;;;;;;;0.38;0.35;;;24.70;56.90;;;;;;6219116;28;20790;-72
2021/07/30 04:51:46;;;;;;;0.40;0.30;;;24.70;56.90;;;;;;6218270;28;20358;-72
2021/07/30 04:54:46;;;;;;;0.77;0.30;;;24.70;56.90;;;;;;6218876;28;20546;-72
2021/07/30 04:57:47;;;;;;;0.30;0.30;;;24.70;56.90;;;;;;6219560;28;20045;-72
2021/07/30 05:00:48;;;;;;;0.95;0.30;;;24.70;56.90;;;;;;6218306;28;20109;-72
2021/07/30 05:03:48;;;;;;;0.40;0.40;;;24.70;56.90;;;;;;6195202;28;20060;-72
2021/07/30 05:06:49;;;;;;;0.50;0.40;;;24.70;56.90;;;;;;6228839;28;20038;-72
2021/07/30 05:09:51;;;;;;;0.55;0.30;;;24.70;56.90;;;;;;6212220;28;20053;-73
2021/07/30 05:12:51;;;;;;;0.50;0.40;;;24.70;56.90;;;;;;6217729;28;20711;-71
2021/07/30 05:15:52;;;;;;;0.38;0.30;;;24.70;56.90;;;;;;6206160;28;20084;-72
2021/07/30 05:18:52;;;;;;;0.55;0.30;;;24.70;57.00;;;;;;6212767;28;20072;-72
2021/07/30 05:21:53;;;;;;;0.60;0.30;;;24.70;56.90;;;;;;6220508;28;20060;-72
2021/07/30 05:24:53;;;;;;;2.05;0.70;;;24.70;57.00;;;;;;6219227;28;20364;-72
2021/07/30 05:27:54;;;;;;;2.38;0.73;;;24.70;55.30;;;;;;6241302;28;20114;-72
2021/07/30 05:30:57;;;;;;;5.70;1.45;;;24.70;52.50;;;;;;6240632;28;20439;-72
2021/07/30 05:33:57;;;;;;;4.57;1.27;;;24.70;51.80;;;;;;6241681;28;20083;-72
2021/07/30 05:36:58;;;;;;;8.30;1.88;;;24.70;52.40;;;;;;6240829;28;20473;-72
2021/07/30 05:39:58;;;;;;;5.45;1.98;;;24.70;50.90;;;;;;6235260;28;20022;-72
2021/07/30 05:42:59;;;;;;;4.82;1.73;;;24.70;50.70;;;;;;6241113;28;20107;-72
2021/07/30 05:46:01;;;;;;;3.15;1.02;;;24.70;51.40;;;;;;6235201;28;20025;-72
2021/07/30 05:49:02;;;;;;;4.32;1.42;;;24.70;53.30;;;;;;6240895;28;20477;-72
2021/07/30 05:52:03;;;;;;;5.28;1.27;;;24.70;53.90;;;;;;6240627;28;20037;-72
2021/07/30 05:55:04;;;;;;;2.80;1.15;;;24.80;54.50;;;;;;6240915;28;20044;-72
2021/07/30 05:58:04;;;;;;;1.50;1.10;;;24.80;54.40;;;;;;6240604;28;20422;-72
2021/07/30 06:01:05;;;;;;;3.95;1.30;;;24.80;54.50;;;;;;6235548;28;21940;-72
2021/07/30 06:04:05;;;;;;;4.00;1.25;;;24.80;54.70;;;;;;6243721;28;20026;-72
2021/07/30 06:07:06;;;;;;;3.92;1.48;;;24.80;54.90;;;;;;6238314;28;20085;-72
2021/07/30 06:10:07;;;;;;;5.30;1.30;;;24.80;54.80;;;;;;6220094;28;20034;-72
2021/07/30 06:13:08;;;;;;;4.07;1.00;;;24.80;56.00;;;;;;6234174;28;20389;-72
2021/07/30 06:16:10;;;;;;;3.50;1.52;;;24.90;55.40;;;;;;6221524;28;20117;-71
2021/07/30 06:19:10;;;;;;;5.18;1.17;;;24.80;55.80;;;;;;6236359;28;20034;-71
2021/07/30 06:22:11;;;;;;;3.65;0.90;;;24.80;55.70;;;;;;6228958;28;20418;-72
2021/07/30 06:25:12;;;;;;;3.38;1.10;;;24.90;54.40;;;;;;6244685;28;20030;-71
2021/07/30 06:28:12;;;;;;;2.28;1.00;;;24.90;53.50;;;;;;6243322;28;20049;-71
2021/07/30 06:31:13;;;;;;;2.40;0.90;;;24.90;53.10;;;;;;6244248;28;20043;-71
2021/07/30 06:34:14;;;;;;;2.00;1.00;;;25.00;52.80;;;;;;6244094;28;20021;-71
2021/07/30 06:37:14;;;;;;;1.08;0.77;;;25.10;52.50;;;;;;6244523;28;20025;-71
2021/07/30 06:40:15;;;;;;;1.95;0.95;;;25.10;52.20;;;;;;6244066;28;20483;-71
2021/07/30 06:43:16;;;;;;;3.42;1.13;;;25.10;52.00;;;;;;6244026;28;20114;-71
2021/07/30 06:46:16;;;;;;;2.03;1.00;;;25.10;51.90;;;;;;6244299;28;20468;-71
2021/07/30 06:49:17;;;;;;;3.08;0.85;;;25.20;51.80;;;;;;6244180;28;20032;-71
2021/07/30 06:52:18;;;;;;;1.23;0.70;;;25.20;51.70;;;;;;6243940;28;20037;-71
2021/07/30 06:55:19;;;;;;;2.58;0.93;;;25.20;51.60;;;;;;6244288;28;20586;-71
2021/07/30 06:58:19;;;;;;;2.75;1.10;;;25.20;51.50;;;;;;6244009;28;20500;-71
2021/07/30 07:01:20;;;;;;;2.50;0.82;;;25.30;51.40;;;;;;6244152;28;20065;-71
2021/07/30 07:04:20;;;;;;;1.83;0.88;;;25.30;51.30;;;;;;6243920;28;20577;-71
2021/07/30 07:07:22;;;;;;;1.05;0.70;;;25.30;51.20;;;;;;6244226;28;20120;-71
2021/07/30 07:10:23;;;;;;;0.93;0.68;;;25.30;51.10;;;;;;6244364;28;20025;-71
2021/07/30 07:13:23;;;;;;;1.23;0.85;;;25.30;51.00;;;;;;6238301;28;20369;-71
2021/07/30 07:16:24;;;;;;;1.15;0.90;;;25.40;51.00;;;;;;6219487;28;20100;-71
2021/07/30 07:19:25;;;;;;;1.17;0.73;;;25.40;50.90;;;;;;6237497;28;20541;-71
2021/07/30 07:22:26;;;;;;;2.28;0.80;;;25.40;50.80;;;;;;6245733;28;20056;-71
2021/07/30 07:25:26;;;;;;;1.40;0.82;;;25.40;50.70;;;;;;6248520;28;20033;-71
2021/07/30 07:28:27;;;;;;;2.00;0.90;;;25.40;50.70;;;;;;6248276;28;20049;-71
2021/07/30 07:31:28;;;;;;;1.17;0.73;;;25.40;50.60;;;;;;6248360;28;20388;-71
2021/07/30 07:34:28;;;;;;;1.25;0.80;;;25.40;50.60;;;;;;6247900;28;20096;-71
2021/07/30 07:37:28;;;;;;;1.75;0.93;;;25.40;50.50;;;;;;6248022;28;20485;-71
2021/07/30 07:40:29;;;;;;;1.67;0.93;;;25.40;50.40;;;;;;6247916;28;20306;-71
2021/07/30 07:43:30;;;;;;;1.02;0.70;;;25.40;50.40;;;;;;6247805;28;20037;-71
2021/07/30 07:46:30;;;;;;;1.60;0.95;;;25.40;50.30;;;;;;6247856;28;20040;-71
2021/07/30 07:49:31;;;;;;;0.80;0.60;;;25.40;50.30;;;;;;6247927;28;20096;-71
2021/07/30 07:52:34;;;;;;;1.50;1.00;;;25.50;50.30;;;;;;6247590;28;20101;-71
2021/07/30 07:55:35;;;;;;;1.75;0.80;;;25.40;50.20;;;;;;6247226;28;20091;-71
2021/07/30 07:58:35;;;;;;;1.48;0.60;;;25.40;50.20;;;;;;6247681;28;20480;-71
2021/07/30 08:01:36;;;;;;;1.17;0.93;;;25.40;50.10;;;;;;6247740;28;20033;-71
2021/07/30 08:04:36;;;;;;;1.25;0.77;;;25.50;50.10;;;;;;6247509;28;20063;-71
2021/07/30 08:07:37;;;;;;;1.75;0.75;;;25.50;50.00;;;;;;6247769;28;20029;-71
2021/07/30 08:10:37;;;;;;;1.40;0.80;;;25.50;50.00;;;;;;6247286;28;20079;-71
2021/07/30 08:13:49;;;;;;;0.90;0.70;;;25.50;49.90;;;;;;6243156;28;20171;-71
2021/07/30 08:16:50;;;;;;;0.90;0.70;;;25.50;49.90;;;;;;6247665;28;20030;-71
2021/07/30 08:19:51;;;;;;;0.82;0.60;;;25.50;49.90;;;;;;6247463;28;20060;-71
2021/07/30 08:22:51;;;;;;;0.90;0.70;;;25.50;49.90;;;;;;6247387;28;20417;-71
2021/07/30 08:25:52;;;;;;;1.95;0.93;;;25.50;49.80;;;;;;6247277;28;20025;-72
2021/07/30 08:28:52;;;;;;;1.20;0.60;;;25.50;49.70;;;;;;6247526;28;20542;-71
2021/07/30 08:31:53;;;;;;;0.57;0.57;;;25.60;49.70;;;;;;6246788;28;20025;-71
2021/07/30 08:34:53;;;;;;;1.25;0.80;;;25.50;49.70;;;;;;6246714;28;20480;-71
2021/07/30 08:37:54;;;;;;;0.93;0.73;;;25.50;49.60;;;;;;6246800;28;20022;-71
2021/07/30 08:40:55;;;;;;;0.52;0.40;;;25.50;49.60;;;;;;6246938;28;20021;-71
2021/07/30 08:43:56;;;;;;;0.60;0.60;;;25.50;49.50;;;;;;6247103;28;20433;-71
2021/07/30 08:46:57;;;;;;;0.95;0.70;;;25.50;49.50;;;;;;6247007;28;20427;-71
2021/07/30 08:49:58;;;;;;;2.28;0.73;;;25.60;49.60;;;;;;6247301;28;20025;-71
2021/07/30 08:53:03;;;;;;;0.68;0.68;;;25.50;49.50;;;;;;6253968;28;20048;-71
2021/07/30 08:56:04;;;;;;;1.65;0.88;;;25.50;49.40;;;;;;6260471;28;20053;-71
2021/07/30 08:59:07;;;;;;;1.15;0.70;;;25.50;49.40;;;;;;6261055;28;20029;-71
2021/07/30 09:02:08;;;;;;;1.95;0.90;;;25.50;49.30;;;;;;6258857;28;20389;-71
2021/07/30 09:05:29;;;;;;;1.52;0.77;;;25.60;49.40;;;;;;6247226;28;20037;-71
2021/07/30 09:08:29;;;;;;;1.35;0.70;;;25.50;49.20;;;;;;6246772;28;20017;-71
2021/07/30 09:11:37;;;;;;;1.30;0.80;;;25.50;49.30;;;;;;6246662;28;20092;-71
2021/07/30 09:14:44;;;;;;;1.38;0.82;;;25.50;49.20;;;;;;6231287;28;20018;-71
2021/07/30 09:17:44;;;;;;;1.13;0.80;;;25.60;49.30;;;;;;6245480;28;20044;-71
2021/07/30 09:20:45;;;;;;;1.48;0.85;;;25.60;49.20;;;;;;6245982;28;20053;-71
2021/07/30 09:23:59;;;;;;;2.85;0.73;;;25.60;49.20;;;;;;6245307;28;20041;-71
2021/07/30 09:27:00;;;;;;;0.95;0.63;;;25.60;49.20;;;;;;6245778;28;20021;-71
2021/07/30 09:30:14;;;;;;;0.50;0.50;;;25.60;49.20;;;;;;6245364;28;20064;-71
2021/07/30 09:33:26;;;;;;;0.95;0.70;;;25.60;49.10;;;;;;6245535;28;20032;-71
2021/07/30 09:36:27;;;;;;;0.93;0.80;;;25.60;49.10;;;;;;6245511;28;20109;-71
2021/07/30 09:39:42;;;;;;;1.20;0.82;;;25.60;49.00;;;;;;6245478;28;20489;-71
2021/07/30 09:42:43;;;;;;;0.90;0.70;;;25.60;49.00;;;;;;6244952;28;20025;-71
2021/07/30 09:45:43;;;;;;;0.75;0.57;;;25.60;49.00;;;;;;6245000;28;20068;-71
2021/07/30 09:48:49;;;;;;;0.80;0.60;;;25.60;49.00;;;;;;6245173;28;20053;-71
2021/07/30 09:51:49;;;;;;;0.60;0.45;;;25.60;48.80;;;;;;6244979;28;20045;-71
2021/07/30 09:54:53;;;;;;;1.27;0.70;;;25.60;48.90;;;;;;6245095;28;20109;-71
2021/07/30 09:57:54;;;;;;;0.95;0.73;;;25.60;48.90;;;;;;6244983;28;20243;-71
2021/07/30 10:00:55;;;;;;;1.42;0.70;;;25.60;48.90;;;;;;6244803;28;20053;-71
2021/07/30 10:03:56;;;;;;;0.80;0.77;;;25.60;48.80;;;;;;6245047;28;20033;-71
2021/07/30 10:06:56;;;;;;;1.05;0.70;;;25.60;48.80;;;;;;6244616;28;20036;-71
2021/07/30 10:10:05;;;;;;;0.85;0.50;;;25.60;48.80;;;;;;6245670;28;20049;-71
2021/07/30 10:13:12;;;;;;;0.80;0.55;;;25.60;48.70;;;;;;6241607;28;20018;-71
2021/07/30 10:16:14;;;;;;;0.98;0.70;;;25.60;48.80;;;;;;6228843;28;20177;-71
2021/07/30 10:19:16;;;;;;;1.10;0.55;;;25.60;48.70;;;;;;6244617;28;20454;-71
2021/07/30 10:22:18;;;;;;;0.88;0.70;;;25.60;48.70;;;;;;6244545;28;20040;-71
2021/07/30 10:25:31;;;;;;;1.00;0.70;;;25.60;48.70;;;;;;6244930;28;20022;-71
2021/07/30 10:28:33;;;;;;;0.68;0.68;;;25.60;48.60;;;;;;6244328;28;20057;-71
2021/07/30 10:31:50;;;;;;;0.80;0.60;;;25.60;48.60;;;;;;6244712;28;20033;-71
2021/07/30 10:34:51;;;;;;;2.35;0.90;;;25.60;48.60;;;;;;6244705;28;20049;-71
2021/07/30 10:38:14;;;;;;;0.98;0.80;;;25.60;48.60;;;;;;6244448;28;20045;-71
2021/07/30 10:41:15;;;;;;;0.73;0.60;;;25.60;48.50;;;;;;6244533;28;20025;-71
2021/07/30 10:44:16;;;;;;;0.73;0.60;;;25.60;48.50;;;;;;6220689;28;20440;-71
2021/07/30 10:47:19;;;;;;;1.35;0.70;;;25.60;48.50;;;;;;6243118;28;20026;-71
2021/07/30 10:50:51;;;;;;;0.73;0.70;;;25.60;48.40;;;;;;6241440;28;20499;-71
2021/07/30 10:53:58;;;;;;;0.82;0.57;;;25.60;48.50;;;;;;6242676;28;20156;-71
2021/07/30 10:56:59;;;;;;;1.17;0.77;;;25.60;48.50;;;;;;6243397;28;20058;-71
2021/07/30 11:00:04;;;;;;;0.80;0.60;;;25.60;48.50;;;;;;6244079;28;20352;-71
2021/07/30 11:03:05;;;;;;;1.02;0.80;;;25.60;48.40;;;;;;6233238;28;20041;-71
2021/07/30 11:06:10;;;;;;;0.90;0.73;;;25.60;48.40;;;;;;6247463;28;20374;-71
2021/07/30 11:09:14;;;;;;;;;;;25.60;48.40;;;;;;6247435;28;20037;-71
2021/07/30 11:12:16;;;;;;;0.70;0.60;;;25.60;48.30;;;;;;6247278;28;20350;-71
2021/07/30 11:15:17;;;;;;;3.40;0.70;;;25.60;48.30;;;;;;6242774;28;20435;-71
2021/07/30 11:18:17;;;;;;;1.17;0.88;;;25.70;48.30;;;;;;6247060;28;20049;-71
2021/07/30 11:21:18;;;;;;;0.75;0.52;;;25.70;48.80;;;;;;6245871;28;20374;-71
2021/07/30 11:24:19;;;;;;;2.47;0.70;;;25.70;48.10;;;;;;6246578;28;20048;-71
2021/07/30 11:27:21;;;;;;;1.10;0.80;;;25.70;48.00;;;;;;6246743;28;20446;-71
2021/07/30 11:30:27;;;;;;;1.70;0.70;;;25.70;48.20;;;;;;6247054;28;20017;-72
2021/07/30 11:33:28;;;;;;;1.48;0.82;;;25.70;48.20;;;;;;6246053;28;20053;-71
2021/07/30 11:36:28;;;;;;;1.58;0.63;;;25.70;48.20;;;;;;6243535;28;20488;-71
2021/07/30 11:39:30;;;;;;;1.20;0.90;;;25.70;48.20;;;;;;6235480;28;20048;-71
2021/07/30 11:42:34;;;;;;;1.23;0.90;;;25.70;48.20;;;;;;6246251;28;20041;-71
2021/07/30 11:45:35;;;;;;;2.92;1.08;;;25.70;48.20;;;;;;6239452;28;20070;-71
2021/07/30 11:48:35;;;;;;;1.33;0.90;;;25.70;48.20;;;;;;6230297;28;20100;-72
2021/07/30 11:51:40;;;;;;;1.58;0.60;;;25.80;48.20;;;;;;6247734;28;20017;-71
2021/07/30 11:54:40;;;;;;;2.20;0.98;;;25.80;48.90;;;;;;6247753;28;20108;-71
2021/07/30 11:57:41;;;;;;;1.50;0.68;;;25.70;48.10;;;;;;6245445;28;20034;-71
2021/07/30 12:00:41;;;;;;;2.15;1.00;;;25.70;48.10;;;;;;6247657;28;20091;-71
2021/07/30 12:03:42;;;;;;;1.10;0.70;;;25.70;48.20;;;;;;6247362;28;20043;-71
2021/07/30 12:06:53;;;;;;;1.98;1.00;;;25.70;48.20;;;;;;6247924;28;20040;-71
2021/07/30 12:09:58;;;;;;;1.83;0.82;;;25.70;48.10;;;;;;6246897;28;20124;-71
2021/07/30 12:13:01;;;;;;;2.17;1.10;;;25.70;48.20;;;;;;6245239;28;20036;-71
2021/07/30 12:16:01;;;;;;;3.75;0.90;;;25.70;48.10;;;;;;6242799;28;20033;-71
2021/07/30 12:19:02;;;;;;;2.80;0.80;;;25.70;48.10;;;;;;6247167;28;20044;-71
2021/07/30 12:22:07;;;;;;;1.42;0.70;;;25.70;48.10;;;;;;6247393;28;20138;-71
2021/07/30 12:25:11;;;;;;;1.80;0.90;;;25.70;48.00;;;;;;6247005;28;20037;-71
2021/07/30 12:28:14;;;;;;;2.67;0.98;;;25.70;48.00;;;;;;6247230;28;20026;-71
2021/07/30 12:31:15;;;;;;;1.55;0.90;;;25.70;48.00;;;;;;6246391;28;20105;-71
2021/07/30 12:34:16;;;;;;;1.02;0.77;;;25.70;48.00;;;;;;6246691;28;20392;-71
2021/07/30 12:37:17;;;;;;;1.67;0.73;;;25.70;48.00;;;;;;6245195;28;20384;-71
2021/07/30 12:40:19;;;;;;;1.02;0.70;;;25.70;48.00;;;;;;6246622;28;20064;-71
2021/07/30 12:43:20;;;;;;;1.60;0.70;;;25.70;47.90;;;;;;6246800;28;20385;-71
2021/07/30 12:46:35;;;;;;;3.17;1.10;;;25.70;47.90;;;;;;6245973;28;20029;-71
2021/07/30 12:49:38;;;;;;;1.17;0.82;;;25.70;47.90;;;;;;6246305;28;20064;-71
2021/07/30 12:52:38;;;;;;;1.55;0.80;;;25.70;47.80;;;;;;6245935;28;20017;-71
2021/07/30 12:56:04;;;;;;;1.02;0.75;;;25.70;47.80;;;;;;6246086;28;20405;-71
2021/07/30 12:59:05;;;;;;;1.20;0.90;;;25.70;47.80;;;;;;6246464;28;20022;-71
2021/07/30 13:02:05;;;;;;;1.30;0.60;;;25.70;47.80;;;;;;6246297;28;20048;-71
2021/07/30 13:05:08;;;;;;;1.05;0.70;;;25.70;47.80;;;;;;6245488;28;20040;-71
2021/07/30 13:08:09;;;;;;;0.85;0.70;;;25.70;47.80;;;;;;6245632;28;20087;-71
2021/07/30 13:11:09;;;;;;;1.17;0.90;;;25.70;47.80;;;;;;6243095;28;20358;-71
2021/07/30 13:14:10;;;;;;;1.00;0.70;;;25.70;47.80;;;;;;6234275;28;20100;-72
2021/07/30 13:17:10;;;;;;;0.90;0.60;;;25.70;47.70;;;;;;6239795;28;20393;-71
2021/07/30 13:20:11;;;;;;;1.55;0.60;;;25.70;47.80;;;;;;6245876;28;20048;-71
2021/07/30 13:23:12;;;;;;;0.93;0.70;;;25.70;47.80;;;;;;6245785;28;20650;-71
2021/07/30 13:26:12;;;;;;;0.90;0.70;;;25.70;47.70;;;;;;6245122;28;20037;-71
2021/07/30 13:29:13;;;;;;;1.60;0.80;;;25.70;47.70;;;;;;6244861;28;20035;-72
2021/07/30 13:32:13;;;;;;;1.33;0.90;;;25.70;47.60;;;;;;6244095;28;20368;-71
2021/07/30 13:35:14;;;;;;;1.58;0.60;;;25.70;47.70;;;;;;6244592;28;20036;-71
2021/07/30 13:38:14;;;;;;;1.65;0.90;;;25.70;47.60;;;;;;6244413;28;20025;-72
2021/07/30 13:41:15;;;;;;;1.20;0.82;;;25.70;47.60;;;;;;6244462;28;20028;-71
2021/07/30 13:44:16;;;;;;;0.95;0.70;;;25.70;47.60;;;;;;6244391;28;20025;-73
2021/07/30 13:47:16;;;;;;;0.80;0.63;;;25.70;47.50;;;;;;6244440;28;20029;-72
2021/07/30 13:50:18;;;;;;;1.48;0.75;;;25.70;47.60;;;;;;6244434;28;20031;-72
2021/07/30 13:53:19;;;;;;;1.33;0.70;;;25.70;47.50;;;;;;6244138;28;20032;-72
2021/07/30 13:56:19;;;;;;;0.77;0.70;;;25.70;47.60;;;;;;6244302;28;20045;-71
2021/07/30 13:59:20;;;;;;;1.08;0.80;;;25.70;47.50;;;;;;6244901;28;20543;-71
2021/07/30 14:02:20;;;;;;;1.10;0.70;;;25.70;47.50;;;;;;6246404;28;20076;-71
2021/07/30 14:05:21;;;;;;;0.80;0.70;;;25.70;47.50;;;;;;6244801;28;20024;-72
2021/07/30 14:08:21;;;;;;;1.00;0.70;;;25.70;47.50;;;;;;6244373;28;20025;-72
2021/07/30 14:11:22;;;;;;;1.60;0.77;;;25.70;47.50;;;;;;6243986;28;20108;-71
2021/07/30 14:14:22;;;;;;;0.82;0.73;;;25.70;47.50;;;;;;6231102;28;20312;-72
2021/07/30 14:17:23;;;;;;;0.70;0.68;;;25.70;47.40;;;;;;6230545;28;20026;-71
2021/07/30 14:20:24;;;;;;;0.80;0.50;;;25.70;47.40;;;;;;6244010;28;20083;-71
2021/07/30 14:23:24;;;;;;;0.88;0.80;;;25.70;47.40;;;;;;6242397;28;20033;-71
2021/07/30 14:26:24;;;;;;;0.95;0.60;;;25.70;47.30;;;;;;6243600;28;20484;-71
2021/07/30 14:29:25;;;;;;;1.10;0.70;;;25.70;47.30;;;;;;6243722;28;20087;-72
2021/07/30 14:32:26;;;;;;;1.13;0.77;;;25.70;47.40;;;;;;6245847;28;20048;-71
2021/07/30 14:35:26;;;;;;;0.60;0.60;;;25.70;47.40;;;;;;6249325;28;20083;-71
2021/07/30 14:38:31;;;;;;;1.83;0.60;;;25.70;47.40;;;;;;6249039;28;20138;-71
2021/07/30 14:41:31;;;;;;;;;;;25.70;47.30;;;;;;6248973;28;20100;-71
2021/07/30 14:44:34;;;;;;;0.82;0.70;;;25.70;47.30;;;;;;6248273;28;20197;-71
2021/07/30 14:47:36;;;;;;;1.02;0.63;;;25.70;47.30;;;;;;6248288;28;20068;-71
2021/07/30 14:50:38;;;;;;;1.40;0.80;;;25.70;47.30;;;;;;6248626;28;20041;-72
2021/07/30 14:53:39;;;;;;;1.60;0.82;;;25.70;47.30;;;;;;6248086;28;20388;-72
2021/07/30 14:56:40;;;;;;;1.00;0.55;;;25.70;47.30;;;;;;6248020;28;20465;-72
2021/07/30 14:59:43;;;;;;;0.63;0.52;;;25.70;47.30;;;;;;6248157;28;20026;-71
2021/07/30 15:02:44;;;;;;;0.60;0.60;;;25.70;47.30;;;;;;6248478;28;20034;-71
2021/07/30 15:05:44;;;;;;;0.70;0.55;;;25.70;47.20;;;;;;6245055;28;20376;-71
2021/07/30 15:08:45;;;;;;;0.95;0.60;;;25.70;47.20;;;;;;6247812;28;20038;-71
2021/07/30 15:11:45;;;;;;;1.02;0.60;;;25.70;47.20;;;;;;6247998;28;20064;-71
2021/07/30 15:14:46;;;;;;;1.27;0.60;;;25.70;47.20;;;;;;6238509;28;20037;-72
2021/07/30 15:17:47;;;;;;;1.23;0.75;;;25.70;47.10;;;;;;6227040;28;20021;-72
2021/07/30 15:20:48;;;;;;;0.90;0.70;;;25.80;47.20;;;;;;6248205;28;20080;-71
2021/07/30 15:23:48;;;;;;;0.82;0.70;;;25.80;47.20;;;;;;6247233;28;20045;-72
2021/07/30 15:26:49;;;;;;;0.63;0.60;;;25.80;47.20;;;;;;6247803;28;20032;-71
2021/07/30 15:29:49;;;;;;;0.85;0.50;;;25.70;47.20;;;;;;6247648;28;20029;-72
2021/07/30 15:32:50;;;;;;;0.60;0.60;;;25.70;47.10;;;;;;6247289;28;20412;-71
2021/07/30 15:36:19;;;;;;;0.95;0.60;;;25.80;47.10;;;;;;6247764;28;20079;-71
2021/07/30 15:39:20;;;;;;;0.50;0.50;;;25.80;47.10;;;;;;6247774;28;20060;-72
2021/07/30 15:42:20;;;;;;;0.95;0.60;;;25.80;47.10;;;;;;6230353;28;20155;-72
2021/07/30 15:45:21;;;;;;;1.00;0.68;;;25.70;47.80;;;;;;6243874;28;20061;-71
2021/07/30 15:48:21;;;;;;;0.85;0.73;;;25.70;47.00;;;;;;6238939;28;20072;-72
2021/07/30 15:51:22;;;;;;;1.13;0.70;;;25.70;46.90;;;;;;6240790;28;20021;-73